sensor_id;sensor_type;location;lat;lon;timestamp;P1;durP1;ratioP1;P2;durP2;ratioP2
77105;SDS011;66057;54.718;18.426;2024-02-28T00:01:51;40.80;;;6.43;;
77105;SDS011;66057;54.718;18.426;2024-02-28T00:04:16;39.90;;;7.07;;
77105;SDS011;66057;54.718;18.426;2024-02-28T00:06:42;35.00;;;4.20;;
77105;SDS011;66057;54.718;18.426;2024-02-28T00:09:08;11.43;;;3.63;;
77105;SDS011;66057;54.718;18.426;2024-02-28T00:11:34;24.35;;;5.40;;
77105;SDS011;66057;54.718;18.426;2024-02-28T00:13:59;10.10;;;1.77;;
77105;SDS011;66057;54.718;18.426;2024-02-28T00:16:25;40.83;;;7.60;;
77105;SDS011;66057;54.718;18.426;2024-02-28T00:18:51;37.58;;;5.95;;
77105;SDS011;66057;54.718;18.426;2024-02-28T00:21:17;67.30;;;9.00;;
77105;SDS011;66057;54.718;18.426;2024-02-28T00:23:42;37.97;;;6.93;;
77105;SDS011;66057;54.718;18.426;2024-02-28T00:26:08;3.05;;;2.00;;
77105;SDS011;66057;54.718;18.426;2024-02-28T00:28:33;2.05;;;1.83;;
77105;SDS011;66057;54.718;18.426;2024-02-28T00:30:59;9.07;;;2.63;;
77105;SDS011;66057;54.718;18.426;2024-02-28T00:33:24;5.82;;;2.38;;
77105;SDS011;66057;54.718;18.426;2024-02-28T00:35:50;5.30;;;2.33;;
77105;SDS011;66057;54.718;18.426;2024-02-28T00:38:16;4.35;;;2.65;;
77105;SDS011;66057;54.718;18.426;2024-02-28T00:40:41;3.33;;;1.95;;
77105;SDS011;66057;54.718;18.426;2024-02-28T00:43:07;7.25;;;4.18;;
77105;SDS011;66057;54.718;18.426;2024-02-28T00:45:33;6.55;;;2.42;;
77105;SDS011;66057;54.718;18.426;2024-02-28T00:47:58;4.80;;;2.10;;
77105;SDS011;66057;54.718;18.426;2024-02-28T00:50:24;4.47;;;2.65;;
77105;SDS011;66057;54.718;18.426;2024-02-28T00:52:49;7.00;;;1.90;;
77105;SDS011;66057;54.718;18.426;2024-02-28T00:55:15;4.05;;;1.80;;
77105;SDS011;66057;54.718;18.426;2024-02-28T00:57:41;2.15;;;1.80;;
77105;SDS011;66057;54.718;18.426;2024-02-28T01:00:07;2.15;;;1.60;;
77105;SDS011;66057;54.718;18.426;2024-02-28T01:02:35;7.85;;;2.80;;
77105;SDS011;66057;54.718;18.426;2024-02-28T01:05:00;5.97;;;3.45;;
77105;SDS011;66057;54.718;18.426;2024-02-28T01:07:26;5.45;;;3.30;;
77105;SDS011;66057;54.718;18.426;2024-02-28T01:09:52;3.30;;;1.80;;
77105;SDS011;66057;54.718;18.426;2024-02-28T01:12:17;4.57;;;2.80;;
77105;SDS011;66057;54.718;18.426;2024-02-28T01:14:43;5.88;;;1.77;;
77105;SDS011;66057;54.718;18.426;2024-02-28T01:17:09;4.38;;;1.67;;
77105;SDS011;66057;54.718;18.426;2024-02-28T01:19:34;6.70;;;3.45;;
77105;SDS011;66057;54.718;18.426;2024-02-28T01:22:00;5.32;;;2.22;;
77105;SDS011;66057;54.718;18.426;2024-02-28T01:24:26;1.45;;;0.90;;
77105;SDS011;66057;54.718;18.426;2024-02-28T01:26:51;2.17;;;1.55;;
77105;SDS011;66057;54.718;18.426;2024-02-28T01:29:17;3.25;;;1.95;;
77105;SDS011;66057;54.718;18.426;2024-02-28T01:31:42;4.60;;;1.95;;
77105;SDS011;66057;54.718;18.426;2024-02-28T01:34:08;2.90;;;1.80;;
77105;SDS011;66057;54.718;18.426;2024-02-28T01:36:33;4.50;;;1.67;;
77105;SDS011;66057;54.718;18.426;2024-02-28T01:38:59;4.53;;;2.08;;
77105;SDS011;66057;54.718;18.426;2024-02-28T01:41:24;5.47;;;2.30;;
77105;SDS011;66057;54.718;18.426;2024-02-28T01:43:50;1.80;;;1.10;;
77105;SDS011;66057;54.718;18.426;2024-02-28T01:48:47;3.20;;;1.50;;
77105;SDS011;66057;54.718;18.426;2024-02-28T01:51:13;1.42;;;0.40;;
77105;SDS011;66057;54.718;18.426;2024-02-28T01:53:39;2.33;;;1.80;;
77105;SDS011;66057;54.718;18.426;2024-02-28T01:56:04;2.22;;;1.33;;
77105;SDS011;66057;54.718;18.426;2024-02-28T01:58:31;2.15;;;1.60;;
77105;SDS011;66057;54.718;18.426;2024-02-28T02:00:57;1.05;;;0.95;;
77105;SDS011;66057;54.718;18.426;2024-02-28T02:03:24;3.65;;;2.03;;
77105;SDS011;66057;54.718;18.426;2024-02-28T02:05:49;1.13;;;0.80;;
77105;SDS011;66057;54.718;18.426;2024-02-28T02:08:15;1.25;;;0.82;;
77105;SDS011;66057;54.718;18.426;2024-02-28T02:10:41;1.38;;;0.95;;
77105;SDS011;66057;54.718;18.426;2024-02-28T02:13:08;2.85;;;2.42;;
77105;SDS011;66057;54.718;18.426;2024-02-28T02:15:33;2.67;;;1.95;;
77105;SDS011;66057;54.718;18.426;2024-02-28T02:17:59;6.65;;;3.20;;
77105;SDS011;66057;54.718;18.426;2024-02-28T02:20:25;3.92;;;2.13;;
77105;SDS011;66057;54.718;18.426;2024-02-28T02:22:52;2.88;;;1.67;;
77105;SDS011;66057;54.718;18.426;2024-02-28T02:25:18;4.25;;;2.75;;
77105;SDS011;66057;54.718;18.426;2024-02-28T02:27:44;3.78;;;1.73;;
77105;SDS011;66057;54.718;18.426;2024-02-28T02:30:09;7.55;;;2.78;;
77105;SDS011;66057;54.718;18.426;2024-02-28T02:32:35;6.82;;;3.17;;
77105;SDS011;66057;54.718;18.426;2024-02-28T02:35:00;6.13;;;2.85;;
77105;SDS011;66057;54.718;18.426;2024-02-28T02:37:26;4.88;;;2.15;;
77105;SDS011;66057;54.718;18.426;2024-02-28T02:39:52;2.83;;;1.95;;
77105;SDS011;66057;54.718;18.426;2024-02-28T02:42:19;3.88;;;2.28;;
77105;SDS011;66057;54.718;18.426;2024-02-28T02:44:44;3.47;;;2.22;;
77105;SDS011;66057;54.718;18.426;2024-02-28T02:47:10;3.75;;;2.08;;
77105;SDS011;66057;54.718;18.426;2024-02-28T02:49:35;3.85;;;1.48;;
77105;SDS011;66057;54.718;18.426;2024-02-28T02:52:01;3.55;;;2.63;;
77105;SDS011;66057;54.718;18.426;2024-02-28T02:54:26;4.38;;;2.53;;
77105;SDS011;66057;54.718;18.426;2024-02-28T02:56:52;6.28;;;1.42;;
77105;SDS011;66057;54.718;18.426;2024-02-28T02:59:17;10.32;;;3.55;;
77105;SDS011;66057;54.718;18.426;2024-02-28T03:01:47;3.88;;;1.92;;
77105;SDS011;66057;54.718;18.426;2024-02-28T03:04:12;4.03;;;2.45;;
77105;SDS011;66057;54.718;18.426;2024-02-28T03:06:38;7.97;;;3.35;;
77105;SDS011;66057;54.718;18.426;2024-02-28T03:09:03;3.97;;;2.65;;
77105;SDS011;66057;54.718;18.426;2024-02-28T03:11:29;4.05;;;2.63;;
77105;SDS011;66057;54.718;18.426;2024-02-28T03:13:55;4.22;;;2.80;;
77105;SDS011;66057;54.718;18.426;2024-02-28T03:16:21;6.50;;;3.53;;
77105;SDS011;66057;54.718;18.426;2024-02-28T03:18:46;9.50;;;3.42;;
77105;SDS011;66057;54.718;18.426;2024-02-28T03:21:12;6.93;;;3.92;;
77105;SDS011;66057;54.718;18.426;2024-02-28T03:23:37;6.38;;;2.90;;
77105;SDS011;66057;54.718;18.426;2024-02-28T03:26:03;6.50;;;3.75;;
77105;SDS011;66057;54.718;18.426;2024-02-28T03:28:29;8.45;;;3.65;;
77105;SDS011;66057;54.718;18.426;2024-02-28T03:30:54;5.20;;;3.70;;
77105;SDS011;66057;54.718;18.426;2024-02-28T03:33:20;12.38;;;3.80;;
77105;SDS011;66057;54.718;18.426;2024-02-28T03:35:45;7.13;;;3.38;;
77105;SDS011;66057;54.718;18.426;2024-02-28T03:38:11;17.13;;;5.35;;
77105;SDS011;66057;54.718;18.426;2024-02-28T03:40:37;5.47;;;3.40;;
77105;SDS011;66057;54.718;18.426;2024-02-28T03:43:02;6.07;;;3.70;;
77105;SDS011;66057;54.718;18.426;2024-02-28T03:45:28;19.08;;;5.15;;
77105;SDS011;66057;54.718;18.426;2024-02-28T03:47:54;10.77;;;3.47;;
77105;SDS011;66057;54.718;18.426;2024-02-28T03:50:20;8.65;;;4.32;;
77105;SDS011;66057;54.718;18.426;2024-02-28T03:52:46;9.50;;;4.28;;
77105;SDS011;66057;54.718;18.426;2024-02-28T03:55:11;10.18;;;4.85;;
77105;SDS011;66057;54.718;18.426;2024-02-28T03:57:37;10.10;;;5.07;;
77105;SDS011;66057;54.718;18.426;2024-02-28T04:00:03;10.77;;;4.13;;
77105;SDS011;66057;54.718;18.426;2024-02-28T04:02:30;8.63;;;4.57;;
77105;SDS011;66057;54.718;18.426;2024-02-28T04:04:55;11.52;;;5.25;;
77105;SDS011;66057;54.718;18.426;2024-02-28T04:07:21;11.57;;;2.95;;
77105;SDS011;66057;54.718;18.426;2024-02-28T04:09:46;7.20;;;3.25;;
77105;SDS011;66057;54.718;18.426;2024-02-28T04:12:12;5.05;;;2.78;;
77105;SDS011;66057;54.718;18.426;2024-02-28T04:14:38;12.35;;;4.40;;
77105;SDS011;66057;54.718;18.426;2024-02-28T04:17:04;6.72;;;3.38;;
77105;SDS011;66057;54.718;18.426;2024-02-28T04:19:32;6.32;;;2.58;;
77105;SDS011;66057;54.718;18.426;2024-02-28T04:21:58;8.75;;;4.18;;
77105;SDS011;66057;54.718;18.426;2024-02-28T04:24:23;10.15;;;4.20;;
77105;SDS011;66057;54.718;18.426;2024-02-28T04:26:49;5.25;;;3.35;;
77105;SDS011;66057;54.718;18.426;2024-02-28T04:29:15;9.13;;;3.50;;
77105;SDS011;66057;54.718;18.426;2024-02-28T04:31:40;5.45;;;2.10;;
77105;SDS011;66057;54.718;18.426;2024-02-28T04:34:06;7.63;;;3.30;;
77105;SDS011;66057;54.718;18.426;2024-02-28T04:36:32;7.82;;;4.00;;
77105;SDS011;66057;54.718;18.426;2024-02-28T04:38:57;5.18;;;2.78;;
77105;SDS011;66057;54.718;18.426;2024-02-28T04:41:23;4.47;;;2.78;;
77105;SDS011;66057;54.718;18.426;2024-02-28T04:43:48;18.40;;;4.40;;
77105;SDS011;66057;54.718;18.426;2024-02-28T04:46:14;6.00;;;3.05;;
77105;SDS011;66057;54.718;18.426;2024-02-28T04:48:39;5.70;;;3.53;;
77105;SDS011;66057;54.718;18.426;2024-02-28T04:51:05;4.47;;;3.13;;
77105;SDS011;66057;54.718;18.426;2024-02-28T04:53:31;5.40;;;3.78;;
77105;SDS011;66057;54.718;18.426;2024-02-28T04:55:56;5.35;;;3.17;;
77105;SDS011;66057;54.718;18.426;2024-02-28T04:58:22;14.23;;;4.55;;
77105;SDS011;66057;54.718;18.426;2024-02-28T05:00:47;9.52;;;3.03;;
77105;SDS011;66057;54.718;18.426;2024-02-28T05:03:13;5.00;;;2.92;;
77105;SDS011;66057;54.718;18.426;2024-02-28T05:05:38;9.32;;;4.72;;
77105;SDS011;66057;54.718;18.426;2024-02-28T05:08:04;18.92;;;4.45;;
77105;SDS011;66057;54.718;18.426;2024-02-28T05:10:30;7.38;;;2.78;;
77105;SDS011;66057;54.718;18.426;2024-02-28T05:12:55;15.88;;;5.95;;
77105;SDS011;66057;54.718;18.426;2024-02-28T05:15:21;25.17;;;6.85;;
77105;SDS011;66057;54.718;18.426;2024-02-28T05:17:46;18.20;;;5.05;;
77105;SDS011;66057;54.718;18.426;2024-02-28T05:20:12;10.38;;;3.80;;
77105;SDS011;66057;54.718;18.426;2024-02-28T05:22:38;16.08;;;4.43;;
77105;SDS011;66057;54.718;18.426;2024-02-28T05:25:05;14.15;;;4.90;;
77105;SDS011;66057;54.718;18.426;2024-02-28T05:27:31;30.60;;;5.18;;
77105;SDS011;66057;54.718;18.426;2024-02-28T05:29:57;9.25;;;3.20;;
77105;SDS011;66057;54.718;18.426;2024-02-28T05:32:23;20.90;;;6.03;;
77105;SDS011;66057;54.718;18.426;2024-02-28T05:34:48;25.42;;;6.30;;
77105;SDS011;66057;54.718;18.426;2024-02-28T05:37:16;11.68;;;4.85;;
77105;SDS011;66057;54.718;18.426;2024-02-28T05:39:41;5.60;;;2.30;;
77105;SDS011;66057;54.718;18.426;2024-02-28T05:42:07;13.88;;;3.88;;
77105;SDS011;66057;54.718;18.426;2024-02-28T05:44:32;24.23;;;4.57;;
77105;SDS011;66057;54.718;18.426;2024-02-28T05:46:59;50.25;;;7.20;;
77105;SDS011;66057;54.718;18.426;2024-02-28T05:49:25;7.55;;;3.97;;
77105;SDS011;66057;54.718;18.426;2024-02-28T05:51:51;9.07;;;2.88;;
77105;SDS011;66057;54.718;18.426;2024-02-28T05:54:16;17.48;;;5.07;;
77105;SDS011;66057;54.718;18.426;2024-02-28T05:56:42;15.73;;;5.45;;
77105;SDS011;66057;54.718;18.426;2024-02-28T05:59:08;9.10;;;3.90;;
77105;SDS011;66057;54.718;18.426;2024-02-28T06:01:33;13.23;;;4.85;;
77105;SDS011;66057;54.718;18.426;2024-02-28T06:03:59;7.65;;;3.42;;
77105;SDS011;66057;54.718;18.426;2024-02-28T06:06:25;6.47;;;1.85;;
77105;SDS011;66057;54.718;18.426;2024-02-28T06:08:51;12.38;;;3.80;;
77105;SDS011;66057;54.718;18.426;2024-02-28T06:11:17;18.80;;;4.40;;
77105;SDS011;66057;54.718;18.426;2024-02-28T06:13:42;9.40;;;4.68;;
77105;SDS011;66057;54.718;18.426;2024-02-28T06:16:13;16.25;;;4.18;;
77105;SDS011;66057;54.718;18.426;2024-02-28T06:18:38;21.75;;;5.50;;
77105;SDS011;66057;54.718;18.426;2024-02-28T06:21:06;5.75;;;3.67;;
77105;SDS011;66057;54.718;18.426;2024-02-28T06:23:32;20.50;;;4.00;;
77105;SDS011;66057;54.718;18.426;2024-02-28T06:25:57;31.80;;;5.45;;
77105;SDS011;66057;54.718;18.426;2024-02-28T06:28:23;15.32;;;4.05;;
77105;SDS011;66057;54.718;18.426;2024-02-28T06:30:49;40.17;;;7.25;;
77105;SDS011;66057;54.718;18.426;2024-02-28T06:33:15;20.48;;;5.50;;
77105;SDS011;66057;54.718;18.426;2024-02-28T06:35:41;30.80;;;5.45;;
77105;SDS011;66057;54.718;18.426;2024-02-28T06:38:07;17.67;;;5.78;;
77105;SDS011;66057;54.718;18.426;2024-02-28T06:40:33;41.72;;;4.43;;
77105;SDS011;66057;54.718;18.426;2024-02-28T06:42:59;32.45;;;6.03;;
77105;SDS011;66057;54.718;18.426;2024-02-28T06:45:25;30.30;;;5.78;;
77105;SDS011;66057;54.718;18.426;2024-02-28T06:47:51;17.75;;;4.50;;
77105;SDS011;66057;54.718;18.426;2024-02-28T06:50:16;30.45;;;5.15;;
77105;SDS011;66057;54.718;18.426;2024-02-28T06:52:42;36.75;;;5.38;;
77105;SDS011;66057;54.718;18.426;2024-02-28T06:55:08;22.25;;;6.53;;
77105;SDS011;66057;54.718;18.426;2024-02-28T06:57:37;11.88;;;4.10;;
77105;SDS011;66057;54.718;18.426;2024-02-28T07:00:07;25.48;;;5.40;;
77105;SDS011;66057;54.718;18.426;2024-02-28T07:02:44;22.98;;;5.07;;
77105;SDS011;66057;54.718;18.426;2024-02-28T07:05:10;36.28;;;5.13;;
77105;SDS011;66057;54.718;18.426;2024-02-28T07:07:36;20.25;;;5.30;;
77105;SDS011;66057;54.718;18.426;2024-02-28T07:10:03;22.77;;;3.80;;
77105;SDS011;66057;54.718;18.426;2024-02-28T07:14:55;27.75;;;4.57;;
77105;SDS011;66057;54.718;18.426;2024-02-28T07:17:20;21.40;;;4.28;;
77105;SDS011;66057;54.718;18.426;2024-02-28T07:19:46;31.48;;;5.57;;
77105;SDS011;66057;54.718;18.426;2024-02-28T07:22:11;43.67;;;5.78;;
77105;SDS011;66057;54.718;18.426;2024-02-28T07:24:37;28.13;;;5.57;;
77105;SDS011;66057;54.718;18.426;2024-02-28T07:27:03;22.23;;;4.03;;
77105;SDS011;66057;54.718;18.426;2024-02-28T07:29:29;20.42;;;3.45;;
77105;SDS011;66057;54.718;18.426;2024-02-28T07:31:54;38.00;;;4.75;;
77105;SDS011;66057;54.718;18.426;2024-02-28T07:34:20;9.70;;;3.03;;
77105;SDS011;66057;54.718;18.426;2024-02-28T07:36:46;20.90;;;4.07;;
77105;SDS011;66057;54.718;18.426;2024-02-28T07:39:11;12.98;;;4.15;;
77105;SDS011;66057;54.718;18.426;2024-02-28T07:41:38;19.50;;;5.63;;
77105;SDS011;66057;54.718;18.426;2024-02-28T07:44:04;14.60;;;3.75;;
77105;SDS011;66057;54.718;18.426;2024-02-28T07:46:30;20.35;;;4.43;;
77105;SDS011;66057;54.718;18.426;2024-02-28T07:48:56;13.80;;;3.85;;
77105;SDS011;66057;54.718;18.426;2024-02-28T07:51:22;19.02;;;3.92;;
77105;SDS011;66057;54.718;18.426;2024-02-28T07:53:48;10.45;;;3.38;;
77105;SDS011;66057;54.718;18.426;2024-02-28T07:56:17;17.58;;;4.80;;
77105;SDS011;66057;54.718;18.426;2024-02-28T07:58:43;45.78;;;6.40;;
77105;SDS011;66057;54.718;18.426;2024-02-28T08:01:08;8.52;;;4.32;;
77105;SDS011;66057;54.718;18.426;2024-02-28T08:03:35;10.57;;;4.38;;
77105;SDS011;66057;54.718;18.426;2024-02-28T08:06:00;9.93;;;3.67;;
77105;SDS011;66057;54.718;18.426;2024-02-28T08:08:26;13.77;;;4.75;;
77105;SDS011;66057;54.718;18.426;2024-02-28T08:10:52;13.90;;;4.10;;
77105;SDS011;66057;54.718;18.426;2024-02-28T08:13:18;12.68;;;3.80;;
77105;SDS011;66057;54.718;18.426;2024-02-28T08:15:44;8.80;;;3.72;;
77105;SDS011;66057;54.718;18.426;2024-02-28T08:18:10;7.70;;;2.95;;
77105;SDS011;66057;54.718;18.426;2024-02-28T08:20:38;10.65;;;3.28;;
77105;SDS011;66057;54.718;18.426;2024-02-28T08:23:05;9.48;;;3.05;;
77105;SDS011;66057;54.718;18.426;2024-02-28T08:25:31;3.03;;;1.77;;
77105;SDS011;66057;54.718;18.426;2024-02-28T08:27:57;4.95;;;2.15;;
77105;SDS011;66057;54.718;18.426;2024-02-28T08:30:22;3.60;;;1.48;;
77105;SDS011;66057;54.718;18.426;2024-02-28T08:32:48;3.03;;;1.60;;
77105;SDS011;66057;54.718;18.426;2024-02-28T08:35:13;6.78;;;1.63;;
77105;SDS011;66057;54.718;18.426;2024-02-28T08:37:39;4.13;;;2.15;;
77105;SDS011;66057;54.718;18.426;2024-02-28T08:40:06;5.30;;;3.15;;
77105;SDS011;66057;54.718;18.426;2024-02-28T08:42:32;3.65;;;1.88;;
77105;SDS011;66057;54.718;18.426;2024-02-28T08:44:57;1.95;;;0.80;;
77105;SDS011;66057;54.718;18.426;2024-02-28T08:47:25;4.15;;;2.40;;
77105;SDS011;66057;54.718;18.426;2024-02-28T08:49:54;7.70;;;2.75;;
77105;SDS011;66057;54.718;18.426;2024-02-28T08:52:20;3.38;;;1.95;;
77105;SDS011;66057;54.718;18.426;2024-02-28T08:54:45;3.20;;;1.98;;
77105;SDS011;66057;54.718;18.426;2024-02-28T08:57:11;3.70;;;2.40;;
77105;SDS011;66057;54.718;18.426;2024-02-28T08:59:37;4.85;;;2.60;;
77105;SDS011;66057;54.718;18.426;2024-02-28T09:02:02;4.28;;;2.70;;
77105;SDS011;66057;54.718;18.426;2024-02-28T09:04:29;7.65;;;2.20;;
77105;SDS011;66057;54.718;18.426;2024-02-28T09:06:54;3.67;;;1.15;;
77105;SDS011;66057;54.718;18.426;2024-02-28T09:09:20;6.57;;;2.88;;
77105;SDS011;66057;54.718;18.426;2024-02-28T09:11:46;3.67;;;2.13;;
77105;SDS011;66057;54.718;18.426;2024-02-28T09:14:11;3.70;;;2.05;;
77105;SDS011;66057;54.718;18.426;2024-02-28T09:16:37;2.75;;;0.90;;
77105;SDS011;66057;54.718;18.426;2024-02-28T09:19:03;3.47;;;2.03;;
77105;SDS011;66057;54.718;18.426;2024-02-28T09:21:30;7.13;;;3.13;;
77105;SDS011;66057;54.718;18.426;2024-02-28T09:23:56;4.97;;;3.00;;
77105;SDS011;66057;54.718;18.426;2024-02-28T09:26:22;4.13;;;1.75;;
77105;SDS011;66057;54.718;18.426;2024-02-28T09:28:48;5.68;;;2.70;;
77105;SDS011;66057;54.718;18.426;2024-02-28T09:31:14;3.53;;;1.60;;
77105;SDS011;66057;54.718;18.426;2024-02-28T09:33:41;4.45;;;1.42;;
77105;SDS011;66057;54.718;18.426;2024-02-28T09:36:06;7.78;;;2.97;;
77105;SDS011;66057;54.718;18.426;2024-02-28T09:38:32;5.72;;;3.13;;
77105;SDS011;66057;54.718;18.426;2024-02-28T09:41:00;5.53;;;2.75;;
77105;SDS011;66057;54.718;18.426;2024-02-28T09:43:29;8.07;;;2.85;;
77105;SDS011;66057;54.718;18.426;2024-02-28T09:45:57;4.90;;;2.85;;
77105;SDS011;66057;54.718;18.426;2024-02-28T09:48:24;5.85;;;3.03;;
77105;SDS011;66057;54.718;18.426;2024-02-28T09:50:53;7.78;;;2.50;;
77105;SDS011;66057;54.718;18.426;2024-02-28T09:53:19;3.15;;;1.48;;
77105;SDS011;66057;54.718;18.426;2024-02-28T09:55:45;2.70;;;1.00;;
77105;SDS011;66057;54.718;18.426;2024-02-28T09:58:10;3.33;;;1.63;;
77105;SDS011;66057;54.718;18.426;2024-02-28T10:00:36;4.70;;;1.60;;
77105;SDS011;66057;54.718;18.426;2024-02-28T10:03:03;3.50;;;1.77;;
77105;SDS011;66057;54.718;18.426;2024-02-28T10:05:29;2.28;;;1.08;;
77105;SDS011;66057;54.718;18.426;2024-02-28T10:07:55;3.40;;;1.83;;
77105;SDS011;66057;54.718;18.426;2024-02-28T10:10:21;6.13;;;3.38;;
77105;SDS011;66057;54.718;18.426;2024-02-28T10:12:47;3.00;;;1.55;;
77105;SDS011;66057;54.718;18.426;2024-02-28T10:15:12;7.55;;;3.97;;
77105;SDS011;66057;54.718;18.426;2024-02-28T10:17:38;5.70;;;2.05;;
77105;SDS011;66057;54.718;18.426;2024-02-28T10:20:04;3.25;;;1.90;;
77105;SDS011;66057;54.718;18.426;2024-02-28T10:22:39;4.00;;;1.42;;
77105;SDS011;66057;54.718;18.426;2024-02-28T10:25:05;1.73;;;1.13;;
77105;SDS011;66057;54.718;18.426;2024-02-28T10:27:34;2.35;;;1.10;;
77105;SDS011;66057;54.718;18.426;2024-02-28T10:30:00;3.30;;;1.55;;
77105;SDS011;66057;54.718;18.426;2024-02-28T10:32:30;2.90;;;1.85;;
77105;SDS011;66057;54.718;18.426;2024-02-28T10:34:56;3.17;;;1.88;;
77105;SDS011;66057;54.718;18.426;2024-02-28T10:37:23;2.17;;;1.52;;
77105;SDS011;66057;54.718;18.426;2024-02-28T10:39:50;1.30;;;0.77;;
77105;SDS011;66057;54.718;18.426;2024-02-28T10:44:42;2.55;;;1.63;;
77105;SDS011;66057;54.718;18.426;2024-02-28T10:47:08;4.78;;;1.70;;
77105;SDS011;66057;54.718;18.426;2024-02-28T10:49:34;3.92;;;1.98;;
77105;SDS011;66057;54.718;18.426;2024-02-28T10:51:59;3.38;;;2.15;;
77105;SDS011;66057;54.718;18.426;2024-02-28T10:54:29;6.15;;;2.42;;
77105;SDS011;66057;54.718;18.426;2024-02-28T10:56:55;3.00;;;1.45;;
77105;SDS011;66057;54.718;18.426;2024-02-28T10:59:21;2.78;;;1.38;;
77105;SDS011;66057;54.718;18.426;2024-02-28T11:01:48;6.43;;;2.63;;
77105;SDS011;66057;54.718;18.426;2024-02-28T11:04:15;2.85;;;1.05;;
77105;SDS011;66057;54.718;18.426;2024-02-28T11:06:48;1.90;;;1.30;;
77105;SDS011;66057;54.718;18.426;2024-02-28T11:09:20;4.07;;;1.70;;
77105;SDS011;66057;54.718;18.426;2024-02-28T11:11:48;2.55;;;1.85;;
77105;SDS011;66057;54.718;18.426;2024-02-28T11:16:40;6.72;;;2.63;;
77105;SDS011;66057;54.718;18.426;2024-02-28T11:19:09;5.50;;;2.25;;
77105;SDS011;66057;54.718;18.426;2024-02-28T11:21:43;5.35;;;2.97;;
77105;SDS011;66057;54.718;18.426;2024-02-28T11:24:09;4.43;;;1.92;;
77105;SDS011;66057;54.718;18.426;2024-02-28T11:26:38;4.10;;;2.15;;
77105;SDS011;66057;54.718;18.426;2024-02-28T11:29:03;3.42;;;2.08;;
77105;SDS011;66057;54.718;18.426;2024-02-28T11:31:29;3.08;;;1.92;;
77105;SDS011;66057;54.718;18.426;2024-02-28T11:33:54;3.15;;;1.80;;
77105;SDS011;66057;54.718;18.426;2024-02-28T11:36:20;5.22;;;2.15;;
77105;SDS011;66057;54.718;18.426;2024-02-28T11:38:45;5.28;;;2.88;;
77105;SDS011;66057;54.718;18.426;2024-02-28T11:41:11;3.67;;;1.73;;
77105;SDS011;66057;54.718;18.426;2024-02-28T11:43:37;3.33;;;2.75;;
77105;SDS011;66057;54.718;18.426;2024-02-28T11:46:08;3.95;;;1.85;;
77105;SDS011;66057;54.718;18.426;2024-02-28T11:48:35;3.53;;;2.10;;
77105;SDS011;66057;54.718;18.426;2024-02-28T11:51:01;1.35;;;1.13;;
77105;SDS011;66057;54.718;18.426;2024-02-28T11:53:27;5.50;;;2.78;;
77105;SDS011;66057;54.718;18.426;2024-02-28T11:55:52;3.13;;;1.77;;
77105;SDS011;66057;54.718;18.426;2024-02-28T11:58:18;3.17;;;1.58;;
77105;SDS011;66057;54.718;18.426;2024-02-28T12:03:11;4.25;;;2.83;;
77105;SDS011;66057;54.718;18.426;2024-02-28T12:05:38;3.53;;;2.80;;
77105;SDS011;66057;54.718;18.426;2024-02-28T12:08:04;3.85;;;2.35;;
77105;SDS011;66057;54.718;18.426;2024-02-28T12:10:29;1.65;;;1.55;;
77105;SDS011;66057;54.718;18.426;2024-02-28T12:13:00;6.10;;;3.35;;
77105;SDS011;66057;54.718;18.426;2024-02-28T12:15:28;6.22;;;3.17;;
77105;SDS011;66057;54.718;18.426;2024-02-28T12:17:56;4.07;;;2.83;;
77105;SDS011;66057;54.718;18.426;2024-02-28T12:20:23;3.55;;;2.85;;
77105;SDS011;66057;54.718;18.426;2024-02-28T12:22:49;5.32;;;2.50;;
77105;SDS011;66057;54.718;18.426;2024-02-28T12:25:15;3.75;;;3.05;;
77105;SDS011;66057;54.718;18.426;2024-02-28T12:27:41;3.90;;;2.38;;
77105;SDS011;66057;54.718;18.426;2024-02-28T12:30:07;5.15;;;2.88;;
77105;SDS011;66057;54.718;18.426;2024-02-28T12:32:33;8.88;;;2.92;;
77105;SDS011;66057;54.718;18.426;2024-02-28T12:34:58;7.68;;;3.38;;
77105;SDS011;66057;54.718;18.426;2024-02-28T12:37:24;7.25;;;3.80;;
77105;SDS011;66057;54.718;18.426;2024-02-28T12:39:49;3.97;;;2.33;;
77105;SDS011;66057;54.718;18.426;2024-02-28T12:44:42;3.53;;;2.47;;
77105;SDS011;66057;54.718;18.426;2024-02-28T12:47:11;2.50;;;2.05;;
77105;SDS011;66057;54.718;18.426;2024-02-28T12:49:37;2.65;;;1.17;;
77105;SDS011;66057;54.718;18.426;2024-02-28T12:52:03;3.92;;;2.75;;
77105;SDS011;66057;54.718;18.426;2024-02-28T12:54:29;4.60;;;2.67;;
77105;SDS011;66057;54.718;18.426;2024-02-28T12:56:55;3.85;;;2.72;;
77105;SDS011;66057;54.718;18.426;2024-02-28T12:59:22;2.90;;;2.20;;
77105;SDS011;66057;54.718;18.426;2024-02-28T13:01:48;4.13;;;1.90;;
77105;SDS011;66057;54.718;18.426;2024-02-28T13:04:15;2.20;;;1.13;;
77105;SDS011;66057;54.718;18.426;2024-02-28T13:06:41;1.65;;;0.98;;
77105;SDS011;66057;54.718;18.426;2024-02-28T13:09:06;2.13;;;1.90;;
77105;SDS011;66057;54.718;18.426;2024-02-28T13:11:37;3.08;;;1.67;;
77105;SDS011;66057;54.718;18.426;2024-02-28T13:14:03;2.33;;;2.15;;
77105;SDS011;66057;54.718;18.426;2024-02-28T13:16:30;1.85;;;1.08;;
77105;SDS011;66057;54.718;18.426;2024-02-28T13:18:56;5.30;;;2.65;;
77105;SDS011;66057;54.718;18.426;2024-02-28T13:21:21;1.67;;;1.05;;
77105;SDS011;66057;54.718;18.426;2024-02-28T13:23:47;6.10;;;1.63;;
77105;SDS011;66057;54.718;18.426;2024-02-28T13:26:15;3.05;;;2.55;;
77105;SDS011;66057;54.718;18.426;2024-02-28T13:28:44;0.63;;;0.40;;
77105;SDS011;66057;54.718;18.426;2024-02-28T13:31:09;1.38;;;1.08;;
77105;SDS011;66057;54.718;18.426;2024-02-28T13:33:35;1.65;;;0.88;;
77105;SDS011;66057;54.718;18.426;2024-02-28T13:36:02;3.13;;;1.63;;
77105;SDS011;66057;54.718;18.426;2024-02-28T13:38:28;4.43;;;2.50;;
77105;SDS011;66057;54.718;18.426;2024-02-28T13:40:53;3.15;;;1.98;;
77105;SDS011;66057;54.718;18.426;2024-02-28T13:43:19;5.38;;;2.60;;
77105;SDS011;66057;54.718;18.426;2024-02-28T13:45:46;5.65;;;2.75;;
77105;SDS011;66057;54.718;18.426;2024-02-28T13:48:16;1.83;;;0.95;;
77105;SDS011;66057;54.718;18.426;2024-02-28T13:50:43;3.50;;;2.05;;
77105;SDS011;66057;54.718;18.426;2024-02-28T13:53:11;4.63;;;1.75;;
77105;SDS011;66057;54.718;18.426;2024-02-28T13:55:37;1.98;;;1.30;;
77105;SDS011;66057;54.718;18.426;2024-02-28T13:58:03;2.90;;;1.38;;
77105;SDS011;66057;54.718;18.426;2024-02-28T14:00:29;2.15;;;1.77;;
77105;SDS011;66057;54.718;18.426;2024-02-28T14:02:54;4.63;;;1.98;;
77105;SDS011;66057;54.718;18.426;2024-02-28T14:05:20;2.45;;;1.00;;
77105;SDS011;66057;54.718;18.426;2024-02-28T14:07:46;0.70;;;0.70;;
77105;SDS011;66057;54.718;18.426;2024-02-28T14:10:12;2.88;;;1.90;;
77105;SDS011;66057;54.718;18.426;2024-02-28T14:12:37;1.80;;;1.25;;
77105;SDS011;66057;54.718;18.426;2024-02-28T14:15:04;1.52;;;1.38;;
77105;SDS011;66057;54.718;18.426;2024-02-28T14:17:31;2.47;;;1.60;;
77105;SDS011;66057;54.718;18.426;2024-02-28T14:19:57;2.50;;;1.95;;
77105;SDS011;66057;54.718;18.426;2024-02-28T14:22:22;3.88;;;1.75;;
77105;SDS011;66057;54.718;18.426;2024-02-28T14:24:48;4.18;;;1.73;;
77105;SDS011;66057;54.718;18.426;2024-02-28T14:27:13;3.38;;;2.72;;
77105;SDS011;66057;54.718;18.426;2024-02-28T14:29:40;4.85;;;2.63;;
77105;SDS011;66057;54.718;18.426;2024-02-28T14:32:05;5.47;;;2.75;;
77105;SDS011;66057;54.718;18.426;2024-02-28T14:34:32;6.43;;;3.03;;
77105;SDS011;66057;54.718;18.426;2024-02-28T14:36:58;6.72;;;3.30;;
77105;SDS011;66057;54.718;18.426;2024-02-28T14:39:23;4.15;;;2.30;;